Nearby METAR (Airport) Reports

 

KPRN - Greenville, Alabama, USA
Distance from station: WNW 17mi, 28km
Updated: Tue, 25-Apr-2017 4:56am CDT
Clear
Clear
 Wind from calm
Wind: Calm
Temperature: 52°F , 11°C
Dew Point: 48°F , 9°C
Humidity: 88%
Barometer: 29.78 inHg , 1008.5 hPa
Clouds: Clear
Visibility: 10 miles , 16 km
2017/04/25 09:56 KPRN 250956Z AUTO 00000KT 10SM CLR 11/09 A2978 RMK AO2 SLP082 T01110089 $
KTOI - Troy, Alabama, USA
Distance from station: ENE 21mi, 34km
Updated: Tue, 25-Apr-2017 4:53am CDT
Clear
Clear
 Wind from calm
Wind: Calm
Temperature: 52°F , 11°C
Dew Point: 52°F , 11°C
Humidity: 100%
Barometer: 29.79 inHg , 1008.8 hPa
Clouds: Clear
Visibility: 10 miles , 16 km
2017/04/25 09:53 KTOI 250953Z AUTO 00000KT 10SM CLR 11/11 A2979 RMK AO2 SLP084 T01060106
K79J - Andalusia/Opp Ar, Alabama, USA
Distance from station: S 29mi, 47km
Updated: Tue, 25-Apr-2017 4:56am CDT
Clear
Clear
 Wind from calm
Wind: Calm
Temperature: 54°F , 12°C
Dew Point: 48°F , 9°C
Humidity: 82%
Barometer: 29.79 inHg , 1008.8 hPa
Clouds: Clear
Visibility: 10 miles , 16 km
2017/04/25 09:56 K79J 250956Z AUTO 00000KT 10SM CLR 12/09 A2979 RMK AO2 SLP084 T01170094
 
KMGM - Montgomery, Alabama, USA
Distance from station: N 39mi, 63km
Updated: Tue, 25-Apr-2017 4:53am CDT
Clear
Clear
 Wind from WSW
Wind: WSW 5 mph , 7 km/h
Temperature: 55°F , 13°C
Dew Point: 50°F , 10°C
Humidity: 82%
Barometer: 29.79 inHg , 1008.8 hPa
Clouds: Clear
Visibility: 10 miles , 16 km
2017/04/25 09:53 KMGM 250953Z AUTO 25004KT 10SM CLR 13/10 A2979 RMK AO2 SLP084 T01280100
KMXF - Maxwell Afb/Mgm, Alabama, USA
Distance from station: N 44mi, 70km
Updated: Tue, 25-Apr-2017 5:28am CDT
Mist, Clear
Mist, Clear
 Wind from calm
Wind: Calm
Temperature: 54°F , 12°C
Dew Point: 54°F , 12°C
Humidity: 100%
Barometer: 29.78 inHg , 1008.5 hPa
Summary: Mist
Clouds: Clear
Visibility: 1 3/4 miles , 5 km
2017/04/25 10:28 KMXF 251028Z AUTO 00000KT 1 3/4SM BR CLR 12/12 A2978 RMK AO2 VIS 1 3/4V9 SLP087
KLOR - Lowe Ahp/Ft. Ruc, Alabama, USA
Distance from station: SE 44mi, 71km
Updated: Tue, 25-Apr-2017 4:58am CDT
Clear
Clear
 Wind from calm
Wind: Calm
Temperature: 52°F , 11°C
Dew Point: 52°F , 11°C
Humidity: 100%
Barometer: 29.78 inHg , 1008.5 hPa
Clouds: Clear
Visibility: 10 miles , 16 km
2017/04/25 09:58 KLOR 250958Z AUTO 00000KT 10SM CLR 11/11 A2978 RMK AO2 SLP067 T01100105
 
KGZH - Evergreen, Alabama, USA
Distance from station: WSW 46mi, 75km
Updated: Tue, 25-Apr-2017 4:53am CDT
Clear
Clear
 Wind from calm
Wind: Calm
Temperature: 48°F , 9°C
Dew Point: 46°F , 8°C
Humidity: 94%
Barometer: 29.80 inHg , 1009.1 hPa
Clouds: Clear
Visibility: 8 miles , 13 km
2017/04/25 09:53 KGZH 250953Z AUTO 00000KT 8SM CLR 09/08 A2980 RMK AO2 SLP090 T00890078
K0J4 - Florala Muni, Alabama, USA
Distance from station: S 47mi, 76km
Updated: Tue, 25-Apr-2017 4:58am CDT
Clear
Clear
 Wind from calm
Wind: Calm
Temperature: 52°F , 11°C
Dew Point: 48°F , 9°C
Humidity: 88%
Barometer: 29.81 inHg , 1009.5 hPa
Clouds: Clear
Visibility: 10 miles , 16 km
2017/04/25 09:58 K0J4 250958Z AUTO 00000KT 10SM CLR 11/09 A2981 RMK AO2 SLP091 T01060089 $
KOZR - Ozark/Cairns Aaf, Alabama, USA
Distance from station: SE 49mi, 78km
Updated: Tue, 25-Apr-2017 4:56am CDT
Clear
Clear
 Wind from W
Wind: W 6 mph , 9 km/h
Temperature: 54°F , 12°C
Dew Point: 52°F , 11°C
Humidity: 94%
Barometer: 29.78 inHg , 1008.5 hPa
Clouds: Clear
Visibility: 10 miles , 16 km
2017/04/25 09:56 KOZR 250956Z AUTO 27005KT 10SM CLR 12/11 A2978 RMK AO2 SLP086 T01240110
 
KHEY - Ft Rucker/Hanche, Alabama, USA
Distance from station: ESE 49mi, 79km
Updated: Tue, 25-Apr-2017 4:58am CDT
Clear
Clear
 Wind from calm
Wind: Calm
Temperature: 54°F , 12°C
Dew Point: 54°F , 12°C
Humidity: 100%
Barometer: 29.78 inHg , 1008.5 hPa
Clouds: Clear
Visibility: 10 miles , 16 km
2017/04/25 09:58 KHEY 250958Z AUTO 00000KT 10SM CLR 12/12 A2978 RMK AO2 SLP085 T01230115
KDHN - Dothan, Alabama, USA
Distance from station: ESE 61mi, 97km
Updated: Tue, 25-Apr-2017 4:53am CDT
Clear
Clear
 Wind from W
Wind: W 7 mph , 11 km/h
Temperature: 57°F , 14°C
Dew Point: 55°F , 13°C
Humidity: 94%
Barometer: 29.81 inHg , 1009.5 hPa
Clouds: Clear
Visibility: 10 miles , 16 km
2017/04/25 09:53 KDHN 250953Z AUTO 28006KT 10SM CLR 14/13 A2981 RMK AO2 SLP092 T01390128
KCEW - Crestview, Florida, USA
Distance from station: S 66mi, 107km
Updated: Tue, 25-Apr-2017 4:53am CDT
Clear
Clear
 Wind from calm
Wind: Calm
Temperature: 46°F , 8°C
Dew Point: 45°F , 7°C
Humidity: 93%
Barometer: 29.81 inHg , 1009.5 hPa
Clouds: Clear
Visibility: 9 miles , 14 km
2017/04/25 09:53 KCEW 250953Z AUTO 00000KT 9SM CLR 08/07 A2981 RMK AO2 SLP094 T00780072 $
 
KEUF - Eufaula, Alabama, USA
Distance from station: ENE 73mi, 118km
Updated: Tue, 25-Apr-2017 4:58am CDT
Clear
Clear
 Wind from calm
Wind: Calm
Temperature: 54°F , 12°C
Dew Point: 52°F , 11°C
Humidity: 94%
Barometer: 29.76 inHg , 1007.8 hPa
Clouds: Clear
Visibility: 7 miles , 11 km
2017/04/25 09:58 KEUF 250958Z AUTO 00000KT 7SM CLR 12/11 A2976 RMK AO2 SLP077 T01170106
KJKA - Gulf Shores, Alabama, USA
Distance from station: SSW 132mi, 212km
Updated: Tue, 25-Apr-2017 5:15am CDT
Clear
Clear
 Wind from calm
Wind: Calm
Temperature: 50°F , 10°C
Dew Point: 50°F , 10°C
Humidity: 100%
Barometer: 29.80 inHg , 1009.1 hPa
Clouds: Clear
Visibility: 10 miles , 16 km
2017/04/25 10:15 KJKA 251015Z AUTO 00000KT 10SM CLR 10/10 A2980 RMK AO2 T01020102
KLSF - Ft Benning/Colum, Georgia, USA
Distance from station: SNE 89mi, 143km
Updated: Tue, 25-Apr-2017 5:28am CDT
Clear
Clear
 Wind from calm
Wind: Calm
Temperature: 48°F , 9°C
Dew Point: 48°F , 9°C
Humidity: 100%
Barometer: 29.77 inHg , 1008.1 hPa
Clouds: Clear
Visibility: 8 miles , 13 km
2017/04/25 10:28 KLSF 251028Z AUTO 00000KT 8SM R33/5500FT CLR 09/09 A2977 RMK AO2 SLP083
 
KMOB - Mobile/Bates, Alabama, USA
Distance from station: SW 125mi, 202km
Updated: Tue, 25-Apr-2017 4:56am CDT
Clear
Clear
 Wind from calm
Wind: Calm
Temperature: 54°F , 12°C
Dew Point: 52°F , 11°C
Humidity: 94%
Barometer: 29.80 inHg , 1009.1 hPa
Clouds: Clear
Visibility: 10 miles , 16 km
2017/04/25 09:56 KMOB 250956Z AUTO 00000KT 10SM CLR 12/11 A2980 RMK AO2 SLP090 T01170106
KNMM - Meridian Nas, Mississippi, USA
Distance from station: WNW 151mi, 243km
Updated: Tue, 25-Apr-2017 4:56am CDT
Clear
Clear
 Wind from calm
Wind: Calm
Temperature: 50°F , 10°C
Dew Point: 46°F , 8°C
Humidity: 88%
Barometer: 29.79 inHg , 1008.8 hPa
Clouds: Clear
Visibility: 10 miles , 16 km
2017/04/25 09:56 KNMM 250956Z AUTO 00000KT 10SM CLR 10/08 A2979 RMK AO2 SLP098 T01000078 $
KQHY - Hurlbert (Ft Walton Bch), Florida, USA
Distance from station: S 94mi, 151km
Updated: Tue, 25-Apr-2017 4:56am CDT
Clear
Clear
 Wind from calm
Wind: Calm
Temperature: 52°F , 11°C
Dew Point: 50°F , 10°C
Humidity: 94%
Barometer: 29.81 inHg , 1009.5 hPa
Clouds: Clear
Visibility: 10 miles , 16 km
2017/04/25 09:56 KQHY 250956Z AUTO 00000KT 10SM CLR 11/10 A2981 RMK AO2 SLP101 T01110103
 
KTCL - Tuscaloosa, Alabama, USA
Distance from station: NNW 129mi, 207km
Updated: Tue, 25-Apr-2017 4:53am CDT
Mist, Clear
Mist, Clear
 Wind from calm
Wind: Calm
Temperature: 50°F , 10°C
Dew Point: 48°F , 9°C
Humidity: 94%
Barometer: 29.79 inHg , 1008.8 hPa
Summary: Mist
Clouds: Clear
Visibility: 6 miles , 10 km
2017/04/25 09:53 KTCL 250953Z AUTO 00000KT 6SM BR CLR 10/09 A2979 RMK AO2 SLP087 T01000094
KECP - Panama City, Florida, USA
Distance from station: SSE 122mi, 196km
Updated: Tue, 25-Apr-2017 4:53am CDT
Clear
Clear
 Wind from calm
Wind: Calm
Temperature: 54°F , 12°C
Dew Point: 50°F , 10°C
Humidity: 88%
Barometer: 29.79 inHg , 1008.8 hPa
Clouds: Clear
Visibility: 10 miles , 16 km
2017/04/25 09:53 KECP 250953Z AUTO 00000KT 10SM CLR 12/10 A2979 RMK AO2 SLP099 T01220100
KCBM - Columbus Afb, Mississippi, USA
Distance from station: NW 175mi, 282km
Updated: Tue, 25-Apr-2017 4:58am CDT
Clear
Clear
 Wind from calm
Wind: Calm
Temperature: 48°F , 9°C
Dew Point: 48°F , 9°C
Humidity: 100%
Barometer: 29.78 inHg , 1008.5 hPa
Clouds: Clear
Visibility: 10 miles , 16 km
2017/04/25 09:58 KCBM 250958Z AUTO 00000KT 10SM CLR 09/09 A2978 RMK AO2 SLP087 T00870086 $
 
KBHM - Birmingham, Alabama, USA
Distance from station: N 132mi, 212km
Updated: Tue, 25-Apr-2017 5:11am CDT
Overcast
Overcast
 Wind from calm
Wind: Calm
Temperature: 55°F , 13°C
Dew Point: 54°F , 12°C
Humidity: 94%
Barometer: 29.81 inHg , 1009.5 hPa
Clouds: Overcast
Visibility: 10 miles , 16 km
Cloud details: Overcast 400 ft
2017/04/25 10:11 KBHM 251011Z 00000KT 10SM OVC004 13/12 A2981 RMK AO2 T01280117
KAAF - Apalachicola, Florida, USA
Distance from station: SSE 156mi, 250km
Updated: Tue, 25-Apr-2017 4:53am CDT
Clear
Clear
 Wind from calm
Wind: Calm
Temperature: 54°F , 12°C
Dew Point: 54°F , 12°C
Humidity: 100%
Barometer: 29.80 inHg , 1009.1 hPa
Clouds: Clear
Visibility: 10 miles , 16 km
2017/04/25 09:53 KAAF 250953Z AUTO 00000KT 10SM CLR 12/12 A2980 RMK AO2 SLP090 T01220117 TSNO
KATL - Atlanta, Georgia, USA
Distance from station: NE 177mi, 287km
Updated: Tue, 25-Apr-2017 4:52am CDT
Mostly cloudy
Mostly cloudy
 Wind from WNW
Wind: WNW 8 mph , 13 km/h
Temperature: 57°F , 14°C
Dew Point: 55°F , 13°C
Humidity: 94%
Barometer: 29.74 inHg , 1007.1 hPa
Clouds: Mostly cloudy
Visibility: 10 miles , 16 km
Cloud details: Mostly cloudy 3500 ft
Mostly cloudy 4000 ft
2017/04/25 09:52 KATL 250952Z 29007KT 10SM BKN035 BKN040 14/13 A2974 RMK AO2 SLP066 T01440133
 
KGPT - Gulfport, Mississippi, USA
Distance from station: SW 192mi, 309km
Updated: Tue, 25-Apr-2017 4:53am CDT
Clear
Clear
 Wind from NW
Wind: NW 5 mph , 7 km/h
Temperature: 57°F , 14°C
Dew Point: 55°F , 13°C
Humidity: 94%
Barometer: 29.78 inHg , 1008.5 hPa
Clouds: Clear
Visibility: 10 miles , 16 km
2017/04/25 09:53 KGPT 250953Z AUTO 31004KT 10SM CLR 14/13 A2978 RMK AO2 SLP084 T01390128 $
KNEW - New Orleans/Lake, Louisiana, USA
Distance from station: SW 255mi, 410km
Updated: Tue, 25-Apr-2017 4:53am CDT
Clear
Clear
 Wind from SW
Wind: SW 6 mph , 9 km/h
Temperature: 64°F , 18°C
Dew Point: 57°F , 14°C
Humidity: 78%
Barometer: 29.79 inHg , 1008.8 hPa
Clouds: Clear
Visibility: 10 miles , 16 km
2017/04/25 09:53 KNEW 250953Z AUTO 22005KT 10SM CLR 18/14 A2979 RMK AO2 SLP082 T01780144
KP92 - Salt Point, Louisiana, USA
Distance from station: SW 347mi, 559km
Updated: Tue, 25-Apr-2017 4:53am CDT

 Wind from SW
Wind: SW 6 mph , 9 km/h
Temperature: 68°F , 20°C
Dew Point: 55°F , 13°C
Humidity: 64%
Barometer: 29.78 inHg , 1008.5 hPa
2017/04/25 09:53 KP92 250953Z AUTO 22005KT 20/13 A2978 RMK AO1 SLP083 T02000128